EIN851 LEBB-EICK
Flight info
| Callsign | EIN851 |
|---|---|
| Flight time | 1h 25m |
| Altitude | 36000 |
| Route | DOSUL DCT DELOG DCT RIXIX DCT TIQUH DCT LARLA DCT ARKIL DCT ORTOM ORTOM1R |
| Aircraft | A320/M-SDE3FGHIRWY/LB1 |
Departure
| Time | 2026-04-28 07:32 |
|---|---|
| Airport | Bilbao Airport (LEBB) |
Arrival
| Time | 2026-04-28 08:58 |
|---|---|
| Airport | Cork International Airport (EICK) |
| Time | Latitude | Longitude | Altitude | Speed | Heading |
|---|---|---|---|---|---|
| 2026-04-28 06:59 | 43.30407 | -2.90576 | 128 ft | 0 kts | 26° |
| 2026-04-28 07:22 | 43.30376 | -2.90600 | 123 ft | 4 kts | 35° |
| 2026-04-28 07:22 | 43.30356 | -2.90623 | 123 ft | 4 kts | 61° |
| 2026-04-28 07:22 | 43.30352 | -2.90649 | 123 ft | 1 kts | 117° |
| 2026-04-28 07:26 | 43.30348 | -2.90637 | 123 ft | 4 kts | 117° |
| 2026-04-28 07:26 | 43.30312 | -2.90587 | 127 ft | 8 kts | 143° |
| 2026-04-28 07:27 | 43.30270 | -2.90546 | 127 ft | 7 kts | 145° |
| 2026-04-28 07:27 | 43.30229 | -2.90529 | 127 ft | 6 kts | 186° |
| 2026-04-28 07:27 | 43.30197 | -2.90547 | 125 ft | 4 kts | 206° |
| 2026-04-28 07:27 | 43.30172 | -2.90565 | 124 ft | 5 kts | 209° |
| 2026-04-28 07:28 | 43.30123 | -2.90565 | 124 ft | 9 kts | 149° |
| 2026-04-28 07:28 | 43.30088 | -2.90495 | 126 ft | 11 kts | 118° |
| 2026-04-28 07:28 | 43.30043 | -2.90382 | 125 ft | 13 kts | 118° |
| 2026-04-28 07:28 | 43.30004 | -2.90274 | 127 ft | 12 kts | 115° |
| 2026-04-28 07:29 | 43.29972 | -2.90178 | 127 ft | 10 kts | 115° |
| 2026-04-28 07:29 | 43.29941 | -2.90095 | 126 ft | 9 kts | 117° |
| 2026-04-28 07:29 | 43.29914 | -2.90023 | 124 ft | 8 kts | 117° |
| 2026-04-28 07:29 | 43.29889 | -2.89953 | 124 ft | 11 kts | 116° |
| 2026-04-28 07:30 | 43.29839 | -2.89815 | 125 ft | 18 kts | 117° |
| 2026-04-28 07:30 | 43.29787 | -2.89671 | 127 ft | 13 kts | 111° |
| 2026-04-28 07:30 | 43.29730 | -2.89598 | 126 ft | 11 kts | 178° |
| 2026-04-28 07:30 | 43.29674 | -2.89652 | 127 ft | 9 kts | 230° |
| 2026-04-28 07:31 | 43.29643 | -2.89727 | 125 ft | 9 kts | 253° |
| 2026-04-28 07:31 | 43.29649 | -2.89800 | 124 ft | 7 kts | 293° |
| 2026-04-28 07:31 | 43.29658 | -2.89823 | 125 ft | 0 kts | 297° |
| 2026-04-28 07:31 | 43.29751 | -2.90073 | 124 ft | 67 kts | 297° |
| 2026-04-28 07:32 | 43.30063 | -2.90923 | 125 ft | 130 kts | 297° |
| 2026-04-28 07:32 | 43.30540 | -2.92230 | 221 ft | 170 kts | 296° |
| 2026-04-28 07:32 | 43.31093 | -2.93745 | 747 ft | 181 kts | 297° |
| 2026-04-28 07:32 | 43.31654 | -2.95253 | 1540 ft | 179 kts | 297° |
| 2026-04-28 07:33 | 43.32228 | -2.96746 | 2306 ft | 176 kts | 301° |
| 2026-04-28 07:33 | 43.33076 | -2.98045 | 2722 ft | 194 kts | 317° |
| 2026-04-28 07:33 | 43.34128 | -2.99378 | 3057 ft | 217 kts | 318° |
| 2026-04-28 07:33 | 43.35296 | -3.00862 | 3435 ft | 242 kts | 317° |
| 2026-04-28 07:34 | 43.36583 | -3.02520 | 3960 ft | 263 kts | 317° |
| 2026-04-28 07:34 | 43.37929 | -3.04284 | 4765 ft | 272 kts | 316° |
| 2026-04-28 07:34 | 43.39307 | -3.06099 | 5621 ft | 276 kts | 317° |
| 2026-04-28 07:34 | 43.40915 | -3.07534 | 6543 ft | 279 kts | 339° |
| 2026-04-28 07:35 | 43.42794 | -3.08076 | 7405 ft | 281 kts | 352° |
| 2026-04-28 07:35 | 43.44736 | -3.08477 | 8272 ft | 284 kts | 345° |
| 2026-04-28 07:35 | 43.46594 | -3.09421 | 9097 ft | 287 kts | 330° |
| 2026-04-28 07:35 | 43.48253 | -3.10963 | 9949 ft | 289 kts | 321° |
| 2026-04-28 07:36 | 43.49890 | -3.12676 | 10432 ft | 306 kts | 321° |
| 2026-04-28 07:36 | 43.51652 | -3.14520 | 10664 ft | 330 kts | 321° |
| 2026-04-28 07:36 | 43.53541 | -3.16494 | 10857 ft | 353 kts | 321° |
| 2026-04-28 07:36 | 43.55544 | -3.18588 | 11301 ft | 365 kts | 322° |
| 2026-04-28 07:37 | 43.57582 | -3.20717 | 11969 ft | 370 kts | 322° |
| 2026-04-28 07:37 | 43.59613 | -3.22839 | 12687 ft | 373 kts | 322° |
| 2026-04-28 07:37 | 43.61689 | -3.25002 | 13408 ft | 376 kts | 322° |
| 2026-04-28 07:37 | 43.63788 | -3.27186 | 14085 ft | 379 kts | 322° |
| 2026-04-28 07:38 | 43.65903 | -3.29395 | 14703 ft | 383 kts | 322° |
| 2026-04-28 07:38 | 43.68035 | -3.31631 | 15305 ft | 387 kts | 322° |
| 2026-04-28 07:38 | 43.70192 | -3.33881 | 15903 ft | 390 kts | 322° |
| 2026-04-28 07:38 | 43.72384 | -3.36133 | 16495 ft | 394 kts | 322° |
| 2026-04-28 07:39 | 43.74605 | -3.38396 | 17092 ft | 398 kts | 322° |
| 2026-04-28 07:39 | 43.76851 | -3.40673 | 17672 ft | 402 kts | 322° |
| 2026-04-28 07:39 | 43.79088 | -3.42946 | 18272 ft | 406 kts | 322° |
| 2026-04-28 07:39 | 43.81364 | -3.45273 | 18781 ft | 409 kts | 322° |
| 2026-04-28 07:40 | 43.83660 | -3.47625 | 19299 ft | 412 kts | 322° |
| 2026-04-28 07:40 | 43.85969 | -3.49995 | 19817 ft | 414 kts | 322° |
| 2026-04-28 07:40 | 43.88290 | -3.52384 | 20343 ft | 417 kts | 322° |
| 2026-04-28 07:40 | 43.90624 | -3.54788 | 20832 ft | 419 kts | 322° |
| 2026-04-28 07:41 | 43.92965 | -3.57204 | 21308 ft | 421 kts | 321° |
| 2026-04-28 07:41 | 43.95329 | -3.59649 | 21773 ft | 424 kts | 321° |
| 2026-04-28 07:41 | 43.97699 | -3.62104 | 22225 ft | 426 kts | 321° |
| 2026-04-28 07:41 | 44.00048 | -3.64534 | 22690 ft | 427 kts | 321° |
| 2026-04-28 07:42 | 44.02434 | -3.67001 | 23133 ft | 429 kts | 321° |
| 2026-04-28 07:42 | 44.04834 | -3.69488 | 23549 ft | 431 kts | 321° |
| 2026-04-28 07:42 | 44.07246 | -3.71987 | 23901 ft | 433 kts | 321° |
| 2026-04-28 07:42 | 44.09670 | -3.74496 | 24246 ft | 435 kts | 321° |
| 2026-04-28 07:43 | 44.12105 | -3.77020 | 24571 ft | 437 kts | 321° |
| 2026-04-28 07:43 | 44.14547 | -3.79564 | 24884 ft | 439 kts | 320° |
| 2026-04-28 07:43 | 44.16998 | -3.82126 | 25214 ft | 441 kts | 320° |
| 2026-04-28 07:43 | 44.19460 | -3.84700 | 25532 ft | 443 kts | 320° |
| 2026-04-28 07:44 | 44.21892 | -3.87243 | 25847 ft | 445 kts | 320° |
| 2026-04-28 07:44 | 44.24372 | -3.89835 | 26124 ft | 446 kts | 320° |
| 2026-04-28 07:44 | 44.26862 | -3.92438 | 26408 ft | 448 kts | 320° |
| 2026-04-28 07:44 | 44.29361 | -3.95053 | 26677 ft | 450 kts | 320° |
| 2026-04-28 07:45 | 44.31924 | -3.97582 | 26949 ft | 454 kts | 325° |
| 2026-04-28 07:45 | 44.34743 | -3.99617 | 27200 ft | 459 kts | 334° |
| 2026-04-28 07:45 | 44.37757 | -4.01163 | 27454 ft | 463 kts | 337° |
| 2026-04-28 07:45 | 44.40799 | -4.02656 | 27704 ft | 464 kts | 337° |
| 2026-04-28 07:46 | 44.43809 | -4.04130 | 27924 ft | 465 kts | 337° |
| 2026-04-28 07:46 | 44.46900 | -4.05647 | 28231 ft | 464 kts | 337° |
| 2026-04-28 07:46 | 44.49904 | -4.07129 | 28551 ft | 463 kts | 336° |
| 2026-04-28 07:46 | 44.52933 | -4.08636 | 28865 ft | 463 kts | 336° |
| 2026-04-28 07:47 | 44.55965 | -4.10147 | 29211 ft | 462 kts | 336° |
| 2026-04-28 07:47 | 44.58991 | -4.11652 | 29556 ft | 461 kts | 336° |
| 2026-04-28 07:47 | 44.62012 | -4.13154 | 29881 ft | 460 kts | 336° |
| 2026-04-28 07:47 | 44.65029 | -4.14655 | 30190 ft | 460 kts | 336° |
| 2026-04-28 07:48 | 44.68045 | -4.16153 | 30464 ft | 459 kts | 336° |
| 2026-04-28 07:48 | 44.71018 | -4.17630 | 30737 ft | 459 kts | 336° |
| 2026-04-28 07:48 | 44.74018 | -4.19126 | 31011 ft | 458 kts | 336° |
| 2026-04-28 07:48 | 44.77021 | -4.20628 | 31280 ft | 458 kts | 336° |
| 2026-04-28 07:49 | 44.80019 | -4.22130 | 31551 ft | 457 kts | 336° |
| 2026-04-28 07:49 | 44.83014 | -4.23631 | 31831 ft | 456 kts | 336° |
| 2026-04-28 07:49 | 44.86005 | -4.25126 | 32127 ft | 456 kts | 336° |
| 2026-04-28 07:49 | 44.88995 | -4.26619 | 32414 ft | 455 kts | 336° |
| 2026-04-28 07:50 | 44.91971 | -4.28113 | 32715 ft | 454 kts | 335° |
| 2026-04-28 07:50 | 44.94945 | -4.29613 | 33015 ft | 453 kts | 335° |
| 2026-04-28 07:50 | 44.97867 | -4.31093 | 33316 ft | 452 kts | 335° |
| 2026-04-28 07:50 | 45.00826 | -4.32589 | 33604 ft | 451 kts | 335° |
| 2026-04-28 07:51 | 45.03774 | -4.34077 | 33884 ft | 450 kts | 335° |
| 2026-04-28 07:51 | 45.06726 | -4.35566 | 34148 ft | 450 kts | 335° |
| 2026-04-28 07:51 | 45.09672 | -4.37053 | 34393 ft | 449 kts | 335° |
| 2026-04-28 07:51 | 45.12621 | -4.38541 | 34645 ft | 449 kts | 335° |
| 2026-04-28 07:52 | 45.15557 | -4.40023 | 34888 ft | 449 kts | 335° |
| 2026-04-28 07:52 | 45.18501 | -4.41516 | 35110 ft | 448 kts | 335° |
| 2026-04-28 07:52 | 45.21428 | -4.43010 | 35327 ft | 448 kts | 335° |
| 2026-04-28 07:52 | 45.24361 | -4.44509 | 35537 ft | 448 kts | 335° |
| 2026-04-28 07:53 | 45.27254 | -4.45987 | 35731 ft | 448 kts | 336° |
| 2026-04-28 07:53 | 45.30186 | -4.47484 | 35952 ft | 448 kts | 336° |
| 2026-04-28 07:53 | 45.33120 | -4.48980 | 36068 ft | 449 kts | 336° |
| 2026-04-28 07:53 | 45.36064 | -4.50476 | 36089 ft | 450 kts | 336° |
| 2026-04-28 07:54 | 45.41957 | -4.53479 | 36087 ft | 450 kts | 336° |
| 2026-04-28 07:54 | 45.47847 | -4.56502 | 36089 ft | 450 kts | 336° |
| 2026-04-28 07:55 | 45.53724 | -4.59533 | 36090 ft | 449 kts | 336° |
| 2026-04-28 07:55 | 45.59564 | -4.62539 | 36095 ft | 449 kts | 336° |
| 2026-04-28 07:56 | 45.65443 | -4.65574 | 36106 ft | 449 kts | 336° |
| 2026-04-28 07:56 | 45.71314 | -4.68610 | 36117 ft | 449 kts | 336° |
| 2026-04-28 07:57 | 45.77186 | -4.71665 | 36115 ft | 449 kts | 336° |
| 2026-04-28 07:57 | 45.83016 | -4.74699 | 36119 ft | 449 kts | 336° |
| 2026-04-28 07:58 | 45.88885 | -4.77750 | 36134 ft | 448 kts | 336° |
| 2026-04-28 07:58 | 45.94749 | -4.80801 | 36134 ft | 448 kts | 336° |
| 2026-04-28 07:59 | 46.00596 | -4.83862 | 36146 ft | 447 kts | 336° |
| 2026-04-28 07:59 | 46.06405 | -4.86919 | 36141 ft | 447 kts | 336° |
| 2026-04-28 08:00 | 46.12256 | -4.89988 | 36147 ft | 447 kts | 336° |
| 2026-04-28 08:00 | 46.18099 | -4.93060 | 36151 ft | 447 kts | 336° |
| 2026-04-28 08:01 | 46.23929 | -4.96131 | 36152 ft | 446 kts | 336° |
| 2026-04-28 08:01 | 46.29757 | -4.99221 | 36165 ft | 446 kts | 336° |
| 2026-04-28 08:02 | 46.35534 | -5.02294 | 36158 ft | 445 kts | 337° |
| 2026-04-28 08:02 | 46.41341 | -5.05379 | 36158 ft | 444 kts | 337° |
| 2026-04-28 08:03 | 46.47135 | -5.08465 | 36170 ft | 444 kts | 337° |
| 2026-04-28 08:03 | 46.52902 | -5.11626 | 36162 ft | 442 kts | 336° |
| 2026-04-28 08:04 | 46.58588 | -5.14850 | 36164 ft | 441 kts | 336° |
| 2026-04-28 08:04 | 46.64302 | -5.18092 | 36164 ft | 441 kts | 336° |
| 2026-04-28 08:05 | 46.70023 | -5.21312 | 36170 ft | 441 kts | 336° |
| 2026-04-28 08:05 | 46.75740 | -5.24522 | 36168 ft | 441 kts | 336° |
| 2026-04-28 08:06 | 46.81419 | -5.27738 | 36166 ft | 441 kts | 336° |
| 2026-04-28 08:06 | 46.87134 | -5.30982 | 36155 ft | 440 kts | 336° |
| 2026-04-28 08:07 | 46.92841 | -5.34236 | 36165 ft | 440 kts | 337° |
| 2026-04-28 08:07 | 46.98542 | -5.37492 | 36169 ft | 440 kts | 337° |
| 2026-04-28 08:08 | 47.04204 | -5.40721 | 36170 ft | 439 kts | 337° |
| 2026-04-28 08:08 | 47.09897 | -5.43976 | 36182 ft | 439 kts | 337° |
| 2026-04-28 08:09 | 47.15579 | -5.47233 | 36180 ft | 439 kts | 337° |
| 2026-04-28 08:09 | 47.21266 | -5.50494 | 36181 ft | 439 kts | 337° |
| 2026-04-28 08:10 | 47.26950 | -5.53765 | 36202 ft | 438 kts | 337° |
| 2026-04-28 08:10 | 47.32588 | -5.57023 | 36196 ft | 438 kts | 337° |
| 2026-04-28 08:11 | 47.38257 | -5.60304 | 36195 ft | 437 kts | 337° |
| 2026-04-28 08:11 | 47.43913 | -5.63590 | 36191 ft | 437 kts | 337° |
| 2026-04-28 08:12 | 47.49564 | -5.66881 | 36205 ft | 436 kts | 338° |
| 2026-04-28 08:12 | 47.55160 | -5.70154 | 36202 ft | 435 kts | 338° |
| 2026-04-28 08:13 | 47.60788 | -5.73447 | 36206 ft | 435 kts | 338° |
| 2026-04-28 08:13 | 47.66412 | -5.76727 | 36226 ft | 434 kts | 338° |
| 2026-04-28 08:14 | 47.72019 | -5.80010 | 36224 ft | 432 kts | 339° |
| 2026-04-28 08:14 | 47.77599 | -5.83285 | 36224 ft | 430 kts | 339° |
| 2026-04-28 08:15 | 47.83108 | -5.86545 | 36217 ft | 429 kts | 339° |
| 2026-04-28 08:15 | 47.88645 | -5.89827 | 36219 ft | 427 kts | 339° |
| 2026-04-28 08:16 | 47.94161 | -5.93091 | 36225 ft | 426 kts | 339° |
| 2026-04-28 08:16 | 47.99665 | -5.96356 | 36216 ft | 424 kts | 340° |
| 2026-04-28 08:17 | 48.05099 | -5.99576 | 36226 ft | 423 kts | 340° |
| 2026-04-28 08:17 | 48.10551 | -6.02826 | 36234 ft | 421 kts | 340° |
| 2026-04-28 08:18 | 48.15987 | -6.06088 | 36237 ft | 420 kts | 340° |
| 2026-04-28 08:18 | 48.21412 | -6.09346 | 36233 ft | 420 kts | 340° |
| 2026-04-28 08:19 | 48.26828 | -6.12599 | 36233 ft | 419 kts | 340° |
| 2026-04-28 08:19 | 48.32201 | -6.15828 | 36238 ft | 418 kts | 340° |
| 2026-04-28 08:20 | 48.37599 | -6.19083 | 36234 ft | 418 kts | 340° |
| 2026-04-28 08:20 | 48.42900 | -6.22683 | 36237 ft | 421 kts | 331° |
| 2026-04-28 08:21 | 48.47883 | -6.27308 | 36234 ft | 421 kts | 331° |
| 2026-04-28 08:21 | 48.52843 | -6.31875 | 36238 ft | 420 kts | 332° |
| 2026-04-28 08:22 | 48.57831 | -6.36478 | 36249 ft | 420 kts | 332° |
| 2026-04-28 08:22 | 48.62805 | -6.41102 | 36251 ft | 420 kts | 332° |
| 2026-04-28 08:23 | 48.67779 | -6.45741 | 36250 ft | 420 kts | 332° |
| 2026-04-28 08:23 | 48.72721 | -6.50341 | 36248 ft | 420 kts | 332° |
| 2026-04-28 08:24 | 48.77694 | -6.54985 | 36250 ft | 420 kts | 332° |
| 2026-04-28 08:24 | 48.82664 | -6.59632 | 36235 ft | 419 kts | 332° |
| 2026-04-28 08:25 | 48.87622 | -6.64291 | 36250 ft | 419 kts | 332° |
| 2026-04-28 08:26 | 48.95019 | -6.71276 | 36258 ft | 419 kts | 332° |
| 2026-04-28 08:26 | 48.99970 | -6.75954 | 36262 ft | 419 kts | 332° |
| 2026-04-28 08:27 | 49.04920 | -6.80638 | 36270 ft | 419 kts | 332° |
| 2026-04-28 08:27 | 49.09859 | -6.85339 | 36273 ft | 419 kts | 332° |
| 2026-04-28 08:28 | 49.14774 | -6.90010 | 36269 ft | 419 kts | 333° |
| 2026-04-28 08:28 | 49.19717 | -6.94721 | 36272 ft | 419 kts | 333° |
| 2026-04-28 08:29 | 49.24658 | -6.99440 | 36273 ft | 419 kts | 333° |
| 2026-04-28 08:29 | 49.29594 | -7.04172 | 36272 ft | 419 kts | 333° |
| 2026-04-28 08:30 | 49.34521 | -7.08913 | 36281 ft | 419 kts | 333° |
| 2026-04-28 08:30 | 49.39533 | -7.13247 | 36286 ft | 413 kts | 341° |
| 2026-04-28 08:31 | 49.44806 | -7.16762 | 36245 ft | 413 kts | 341° |
| 2026-04-28 08:31 | 49.50085 | -7.20296 | 36262 ft | 414 kts | 341° |
| 2026-04-28 08:32 | 49.55368 | -7.23842 | 36276 ft | 414 kts | 341° |
| 2026-04-28 08:32 | 49.60619 | -7.27379 | 36276 ft | 415 kts | 341° |
| 2026-04-28 08:33 | 49.65907 | -7.30940 | 36294 ft | 415 kts | 341° |
| 2026-04-28 08:33 | 49.71185 | -7.34514 | 36290 ft | 415 kts | 341° |
| 2026-04-28 08:34 | 49.76467 | -7.38100 | 36287 ft | 415 kts | 342° |
| 2026-04-28 08:34 | 49.81715 | -7.41666 | 36297 ft | 415 kts | 342° |
| 2026-04-28 08:35 | 49.86998 | -7.45267 | 36301 ft | 415 kts | 342° |
| 2026-04-28 08:35 | 49.92278 | -7.48869 | 36309 ft | 415 kts | 341° |
| 2026-04-28 08:36 | 49.97558 | -7.52489 | 36303 ft | 415 kts | 342° |
| 2026-04-28 08:36 | 50.02803 | -7.56089 | 36313 ft | 415 kts | 342° |
| 2026-04-28 08:37 | 50.08086 | -7.59729 | 36316 ft | 416 kts | 342° |
| 2026-04-28 08:37 | 50.13373 | -7.63382 | 36325 ft | 416 kts | 342° |
| 2026-04-28 08:38 | 50.18663 | -7.67032 | 36315 ft | 416 kts | 342° |
| 2026-04-28 08:38 | 50.23952 | -7.70690 | 36322 ft | 416 kts | 342° |
| 2026-04-28 08:39 | 50.29202 | -7.74338 | 36332 ft | 416 kts | 342° |
| 2026-04-28 08:39 | 50.34482 | -7.78007 | 36341 ft | 416 kts | 342° |
| 2026-04-28 08:40 | 50.39765 | -7.81702 | 36315 ft | 416 kts | 342° |
| 2026-04-28 08:40 | 50.42406 | -7.83558 | 35490 ft | 415 kts | 342° |
| 2026-04-28 08:40 | 50.45053 | -7.85414 | 34007 ft | 418 kts | 342° |
| 2026-04-28 08:40 | 50.47632 | -7.87221 | 33328 ft | 402 kts | 342° |
| 2026-04-28 08:41 | 50.50141 | -7.88991 | 32535 ft | 390 kts | 342° |
| 2026-04-28 08:41 | 50.52599 | -7.90726 | 31652 ft | 387 kts | 342° |
| 2026-04-28 08:41 | 50.55064 | -7.92456 | 30821 ft | 390 kts | 342° |
| 2026-04-28 08:41 | 50.57555 | -7.94196 | 29823 ft | 393 kts | 342° |
| 2026-04-28 08:42 | 50.60062 | -7.95953 | 28795 ft | 396 kts | 341° |
| 2026-04-28 08:42 | 50.62599 | -7.97738 | 27813 ft | 403 kts | 341° |
| 2026-04-28 08:42 | 50.65174 | -7.99540 | 26737 ft | 406 kts | 343° |
| 2026-04-28 08:42 | 50.67849 | -8.00988 | 25665 ft | 407 kts | 348° |
| 2026-04-28 08:43 | 50.70537 | -8.02276 | 24641 ft | 411 kts | 348° |
| 2026-04-28 08:43 | 50.73277 | -8.03593 | 23568 ft | 414 kts | 348° |
| 2026-04-28 08:43 | 50.76042 | -8.04929 | 22401 ft | 417 kts | 347° |
| 2026-04-28 08:43 | 50.78809 | -8.06277 | 21532 ft | 414 kts | 347° |
| 2026-04-28 08:44 | 50.81551 | -8.07616 | 20707 ft | 411 kts | 347° |
| 2026-04-28 08:44 | 50.84275 | -8.08945 | 19886 ft | 409 kts | 347° |
| 2026-04-28 08:44 | 50.86985 | -8.10269 | 19094 ft | 407 kts | 347° |
| 2026-04-28 08:44 | 50.89685 | -8.11586 | 18243 ft | 405 kts | 347° |
| 2026-04-28 08:45 | 50.92334 | -8.12875 | 17457 ft | 402 kts | 347° |
| 2026-04-28 08:45 | 50.94992 | -8.14167 | 16720 ft | 398 kts | 346° |
| 2026-04-28 08:45 | 50.97624 | -8.15447 | 15998 ft | 394 kts | 346° |
| 2026-04-28 08:45 | 51.00237 | -8.16720 | 15303 ft | 391 kts | 346° |
| 2026-04-28 08:46 | 51.02830 | -8.17986 | 14624 ft | 389 kts | 346° |
| 2026-04-28 08:46 | 51.05405 | -8.19248 | 13932 ft | 386 kts | 346° |
| 2026-04-28 08:46 | 51.07955 | -8.20504 | 13272 ft | 381 kts | 346° |
| 2026-04-28 08:46 | 51.10467 | -8.21745 | 12636 ft | 375 kts | 346° |
| 2026-04-28 08:47 | 51.12946 | -8.22964 | 11996 ft | 370 kts | 346° |
| 2026-04-28 08:47 | 51.15347 | -8.24144 | 11629 ft | 359 kts | 346° |
| 2026-04-28 08:47 | 51.17666 | -8.25292 | 11501 ft | 341 kts | 346° |
| 2026-04-28 08:47 | 51.19878 | -8.26394 | 11375 ft | 325 kts | 346° |
| 2026-04-28 08:48 | 51.21984 | -8.27442 | 11249 ft | 310 kts | 346° |
| 2026-04-28 08:48 | 51.23999 | -8.28441 | 11126 ft | 297 kts | 347° |
| 2026-04-28 08:48 | 51.25929 | -8.29393 | 11004 ft | 285 kts | 347° |
| 2026-04-28 08:48 | 51.27824 | -8.30111 | 10772 ft | 275 kts | 356° |
| 2026-04-28 08:49 | 51.29713 | -8.30477 | 10527 ft | 272 kts | 356° |
| 2026-04-28 08:49 | 51.31590 | -8.30851 | 10300 ft | 271 kts | 356° |
| 2026-04-28 08:49 | 51.33437 | -8.31223 | 10181 ft | 271 kts | 356° |
| 2026-04-28 08:49 | 51.35310 | -8.31601 | 10048 ft | 271 kts | 356° |
| 2026-04-28 08:50 | 51.37180 | -8.31980 | 9911 ft | 271 kts | 356° |
| 2026-04-28 08:50 | 51.39048 | -8.32357 | 9652 ft | 273 kts | 356° |
| 2026-04-28 08:50 | 51.40947 | -8.32742 | 9184 ft | 273 kts | 356° |
| 2026-04-28 08:50 | 51.42840 | -8.33126 | 8656 ft | 275 kts | 356° |
| 2026-04-28 08:51 | 51.44727 | -8.33509 | 8282 ft | 272 kts | 356° |
| 2026-04-28 08:51 | 51.46598 | -8.33893 | 7828 ft | 269 kts | 356° |
| 2026-04-28 08:51 | 51.48443 | -8.34272 | 7116 ft | 267 kts | 356° |
| 2026-04-28 08:51 | 51.50258 | -8.34646 | 6749 ft | 253 kts | 357° |
| 2026-04-28 08:52 | 51.51910 | -8.34991 | 6503 ft | 235 kts | 357° |
| 2026-04-28 08:52 | 51.53535 | -8.35321 | 5871 ft | 236 kts | 358° |
| 2026-04-28 08:52 | 51.55157 | -8.35644 | 5341 ft | 233 kts | 357° |
| 2026-04-28 08:52 | 51.56745 | -8.35965 | 5037 ft | 229 kts | 358° |
| 2026-04-28 08:53 | 51.58331 | -8.36287 | 4824 ft | 230 kts | 358° |
| 2026-04-28 08:53 | 51.59921 | -8.36610 | 4638 ft | 230 kts | 358° |
| 2026-04-28 08:53 | 51.61506 | -8.36933 | 4458 ft | 230 kts | 358° |
| 2026-04-28 08:53 | 51.63090 | -8.37256 | 4279 ft | 229 kts | 358° |
| 2026-04-28 08:54 | 51.64667 | -8.37659 | 4097 ft | 232 kts | 348° |
| 2026-04-28 08:54 | 51.66178 | -8.38530 | 3722 ft | 235 kts | 345° |
| 2026-04-28 08:54 | 51.67712 | -8.39440 | 3396 ft | 233 kts | 345° |
| 2026-04-28 08:54 | 51.69232 | -8.40334 | 3186 ft | 232 kts | 345° |
| 2026-04-28 08:55 | 51.70743 | -8.41222 | 3070 ft | 231 kts | 345° |
| 2026-04-28 08:55 | 51.72240 | -8.42102 | 2812 ft | 228 kts | 345° |
| 2026-04-28 08:55 | 51.73727 | -8.42976 | 2511 ft | 227 kts | 346° |
| 2026-04-28 08:55 | 51.75208 | -8.43848 | 2196 ft | 227 kts | 345° |
| 2026-04-28 08:56 | 51.76693 | -8.44721 | 1903 ft | 226 kts | 345° |
| 2026-04-28 08:56 | 51.78125 | -8.45568 | 1590 ft | 218 kts | 344° |
| 2026-04-28 08:56 | 51.79513 | -8.46388 | 1279 ft | 207 kts | 344° |
| 2026-04-28 08:56 | 51.80798 | -8.47149 | 1035 ft | 183 kts | 343° |
| 2026-04-28 08:57 | 51.81911 | -8.47808 | 794 ft | 160 kts | 343° |
| 2026-04-28 08:57 | 51.82908 | -8.48395 | 580 ft | 145 kts | 345° |
| 2026-04-28 08:57 | 51.83826 | -8.48926 | 505 ft | 129 kts | 344° |
| 2026-04-28 08:57 | 51.84428 | -8.49253 | 504 ft | 71 kts | 336° |
| 2026-04-28 08:58 | 51.84730 | -8.49451 | 504 ft | 15 kts | 1° |
| 2026-04-28 08:58 | 51.84794 | -8.49326 | 504 ft | 12 kts | 76° |
| 2026-04-28 08:58 | 51.84759 | -8.49211 | 504 ft | 13 kts | 149° |
| 2026-04-28 08:58 | 51.84732 | -8.49123 | 504 ft | 10 kts | 75° |
| 2026-04-28 08:59 | 51.84751 | -8.49039 | 504 ft | 0 kts | 69° |
| 2026-04-28 08:59 | 51.84752 | -8.49035 | 504 ft | 0 kts | 69° |